sensor_id;sensor_type;location;lat;lon;timestamp;noise_LAeq;noise_LA_min;noise_LA_max;noise_LA01;noise_LA95
76100;Laerm;64828;49.956;8.636;2023-04-03T00:00:09;35.37;33.48;37.70;;
76100;Laerm;64828;49.956;8.636;2023-04-03T00:00:26;35.18;33.31;37.11;;
76100;Laerm;64828;49.956;8.636;2023-04-03T00:00:41;35.19;33.16;37.17;;
76100;Laerm;64828;49.956;8.636;2023-04-03T00:00:57;35.27;33.34;37.72;;
76100;Laerm;64828;49.956;8.636;2023-04-03T00:01:14;35.18;33.14;37.08;;
76100;Laerm;64828;49.956;8.636;2023-04-03T00:01:30;35.28;33.45;36.88;;
76100;Laerm;64828;49.956;8.636;2023-04-03T00:01:46;35.28;33.46;37.35;;
76100;Laerm;64828;49.956;8.636;2023-04-03T00:02:01;35.20;33.28;37.08;;
76100;Laerm;64828;49.956;8.636;2023-04-03T00:02:17;35.12;33.25;36.92;;
76100;Laerm;64828;49.956;8.636;2023-04-03T00:02:33;36.18;33.84;39.64;;
76100;Laerm;64828;49.956;8.636;2023-04-03T00:02:48;39.04;35.10;43.70;;
76100;Laerm;64828;49.956;8.636;2023-04-03T00:03:04;40.49;35.65;45.30;;
76100;Laerm;64828;49.956;8.636;2023-04-03T00:03:20;39.00;35.70;43.02;;
76100;Laerm;64828;49.956;8.636;2023-04-03T00:03:36;37.18;34.61;40.40;;
76100;Laerm;64828;49.956;8.636;2023-04-03T00:03:52;36.27;34.03;39.35;;
76100;Laerm;64828;49.956;8.636;2023-04-03T00:04:08;35.27;33.44;36.81;;
76100;Laerm;64828;49.956;8.636;2023-04-03T00:04:23;35.34;33.72;36.98;;
76100;Laerm;64828;49.956;8.636;2023-04-03T00:04:40;35.06;33.20;36.96;;
76100;Laerm;64828;49.956;8.636;2023-04-03T00:04:56;34.94;33.18;36.97;;
76100;Laerm;64828;49.956;8.636;2023-04-03T00:05:11;34.96;32.95;36.75;;
76100;Laerm;64828;49.956;8.636;2023-04-03T00:05:27;34.97;33.20;36.87;;
76100;Laerm;64828;49.956;8.636;2023-04-03T00:05:43;34.97;33.08;36.78;;
76100;Laerm;64828;49.956;8.636;2023-04-03T00:05:59;35.06;33.08;37.06;;
76100;Laerm;64828;49.956;8.636;2023-04-03T00:06:14;35.11;33.17;37.12;;
76100;Laerm;64828;49.956;8.636;2023-04-03T00:06:30;35.46;33.35;39.06;;
76100;Laerm;64828;49.956;8.636;2023-04-03T00:06:46;35.33;33.24;37.87;;
76100;Laerm;64828;49.956;8.636;2023-04-03T00:07:01;34.97;33.14;36.94;;
76100;Laerm;64828;49.956;8.636;2023-04-03T00:07:17;34.90;33.24;36.97;;
76100;Laerm;64828;49.956;8.636;2023-04-03T00:07:33;34.93;33.03;36.92;;
76100;Laerm;64828;49.956;8.636;2023-04-03T00:07:48;35.02;33.26;36.95;;
76100;Laerm;64828;49.956;8.636;2023-04-03T00:08:05;35.47;33.20;38.33;;
76100;Laerm;64828;49.956;8.636;2023-04-03T00:08:23;37.28;33.72;40.13;;
76100;Laerm;64828;49.956;8.636;2023-04-03T00:08:39;37.85;34.33;42.47;;
76100;Laerm;64828;49.956;8.636;2023-04-03T00:08:55;36.28;33.34;39.62;;
76100;Laerm;64828;49.956;8.636;2023-04-03T00:09:11;35.26;33.26;38.09;;
76100;Laerm;64828;49.956;8.636;2023-04-03T00:09:26;35.31;33.35;37.30;;
76100;Laerm;64828;49.956;8.636;2023-04-03T00:09:42;34.90;33.17;36.89;;
76100;Laerm;64828;49.956;8.636;2023-04-03T00:09:58;34.93;33.12;36.96;;
76100;Laerm;64828;49.956;8.636;2023-04-03T00:10:13;35.00;33.17;36.74;;
76100;Laerm;64828;49.956;8.636;2023-04-03T00:10:30;34.93;33.02;36.85;;
76100;Laerm;64828;49.956;8.636;2023-04-03T00:10:46;34.97;33.07;37.10;;
76100;Laerm;64828;49.956;8.636;2023-04-03T00:11:03;34.92;33.30;37.04;;
76100;Laerm;64828;49.956;8.636;2023-04-03T00:11:19;35.06;33.22;36.89;;
76100;Laerm;64828;49.956;8.636;2023-04-03T00:11:36;35.06;32.80;37.12;;
76100;Laerm;64828;49.956;8.636;2023-04-03T00:11:51;35.03;33.24;36.82;;
76100;Laerm;64828;49.956;8.636;2023-04-03T00:12:07;35.01;33.03;36.69;;
76100;Laerm;64828;49.956;8.636;2023-04-03T00:12:22;35.19;33.33;37.12;;
76100;Laerm;64828;49.956;8.636;2023-04-03T00:12:38;35.07;33.10;36.91;;
76100;Laerm;64828;49.956;8.636;2023-04-03T00:12:54;35.01;33.11;36.81;;
76100;Laerm;64828;49.956;8.636;2023-04-03T00:13:10;34.97;33.30;37.31;;
76100;Laerm;64828;49.956;8.636;2023-04-03T00:13:26;35.10;33.11;36.96;;
76100;Laerm;64828;49.956;8.636;2023-04-03T00:13:42;35.03;33.24;36.98;;
76100;Laerm;64828;49.956;8.636;2023-04-03T00:13:58;35.05;33.17;37.23;;
76100;Laerm;64828;49.956;8.636;2023-04-03T00:14:14;35.14;33.04;37.06;;
76100;Laerm;64828;49.956;8.636;2023-04-03T00:14:30;35.03;33.05;37.11;;
76100;Laerm;64828;49.956;8.636;2023-04-03T00:14:45;34.98;33.10;36.86;;
76100;Laerm;64828;49.956;8.636;2023-04-03T00:15:01;35.12;33.06;37.94;;
76100;Laerm;64828;49.956;8.636;2023-04-03T00:15:17;35.09;33.45;36.98;;
76100;Laerm;64828;49.956;8.636;2023-04-03T00:15:34;35.33;33.24;37.49;;
76100;Laerm;64828;49.956;8.636;2023-04-03T00:15:50;35.36;33.39;37.28;;
76100;Laerm;64828;49.956;8.636;2023-04-03T00:16:10;35.01;32.93;37.20;;
76100;Laerm;64828;49.956;8.636;2023-04-03T00:16:26;35.16;33.43;37.46;;
76100;Laerm;64828;49.956;8.636;2023-04-03T00:16:42;35.15;33.13;37.03;;
76100;Laerm;64828;49.956;8.636;2023-04-03T00:16:57;35.10;33.20;37.15;;
76100;Laerm;64828;49.956;8.636;2023-04-03T00:17:13;35.09;33.36;37.06;;
76100;Laerm;64828;49.956;8.636;2023-04-03T00:17:29;35.23;33.03;37.40;;
76100;Laerm;64828;49.956;8.636;2023-04-03T00:17:44;35.41;33.20;37.29;;
76100;Laerm;64828;49.956;8.636;2023-04-03T00:18:02;35.51;33.46;37.65;;
76100;Laerm;64828;49.956;8.636;2023-04-03T00:18:17;35.64;33.31;37.78;;
76100;Laerm;64828;49.956;8.636;2023-04-03T00:18:33;36.17;34.02;39.21;;
76100;Laerm;64828;49.956;8.636;2023-04-03T00:18:49;37.42;34.82;40.55;;
76100;Laerm;64828;49.956;8.636;2023-04-03T00:19:05;37.48;33.96;41.43;;
76100;Laerm;64828;49.956;8.636;2023-04-03T00:19:21;37.13;33.92;40.77;;
76100;Laerm;64828;49.956;8.636;2023-04-03T00:19:36;36.35;33.46;42.70;;
76100;Laerm;64828;49.956;8.636;2023-04-03T00:19:52;35.48;33.23;37.73;;
76100;Laerm;64828;49.956;8.636;2023-04-03T00:20:08;35.33;33.34;38.68;;
76100;Laerm;64828;49.956;8.636;2023-04-03T00:20:24;35.68;33.56;37.97;;
76100;Laerm;64828;49.956;8.636;2023-04-03T00:20:40;36.17;33.58;39.82;;
76100;Laerm;64828;49.956;8.636;2023-04-03T00:20:56;38.14;34.73;42.17;;
76100;Laerm;64828;49.956;8.636;2023-04-03T00:21:13;37.87;35.38;40.26;;
76100;Laerm;64828;49.956;8.636;2023-04-03T00:21:29;37.41;34.47;39.84;;
76100;Laerm;64828;49.956;8.636;2023-04-03T00:21:45;36.29;33.85;43.16;;
76100;Laerm;64828;49.956;8.636;2023-04-03T00:22:01;35.79;33.51;38.86;;
76100;Laerm;64828;49.956;8.636;2023-04-03T00:22:16;35.40;33.30;37.32;;
76100;Laerm;64828;49.956;8.636;2023-04-03T00:22:32;35.29;33.26;37.03;;
76100;Laerm;64828;49.956;8.636;2023-04-03T00:22:48;35.14;33.30;37.66;;
76100;Laerm;64828;49.956;8.636;2023-04-03T00:23:03;34.91;33.09;37.27;;
76100;Laerm;64828;49.956;8.636;2023-04-03T00:23:19;35.10;33.23;38.85;;
76100;Laerm;64828;49.956;8.636;2023-04-03T00:23:35;35.28;33.29;37.64;;
76100;Laerm;64828;49.956;8.636;2023-04-03T00:23:51;35.14;33.30;36.93;;
76100;Laerm;64828;49.956;8.636;2023-04-03T00:24:06;35.32;33.34;37.20;;
76100;Laerm;64828;49.956;8.636;2023-04-03T00:24:22;35.19;33.44;37.13;;
76100;Laerm;64828;49.956;8.636;2023-04-03T00:24:38;35.44;33.41;37.72;;
76100;Laerm;64828;49.956;8.636;2023-04-03T00:24:53;35.56;33.55;40.13;;
76100;Laerm;64828;49.956;8.636;2023-04-03T00:25:09;35.30;33.30;37.57;;
76100;Laerm;64828;49.956;8.636;2023-04-03T00:25:25;34.92;32.96;37.53;;
76100;Laerm;64828;49.956;8.636;2023-04-03T00:25:41;34.95;33.24;36.76;;
76100;Laerm;64828;49.956;8.636;2023-04-03T00:25:56;34.76;33.03;36.71;;
76100;Laerm;64828;49.956;8.636;2023-04-03T00:26:12;35.06;33.08;38.65;;
76100;Laerm;64828;49.956;8.636;2023-04-03T00:26:28;34.80;32.94;37.06;;
76100;Laerm;64828;49.956;8.636;2023-04-03T00:26:43;34.88;32.99;36.71;;
76100;Laerm;64828;49.956;8.636;2023-04-03T00:26:59;34.94;32.95;38.89;;
76100;Laerm;64828;49.956;8.636;2023-04-03T00:27:14;35.11;33.26;37.15;;
76100;Laerm;64828;49.956;8.636;2023-04-03T00:27:32;35.05;33.40;37.67;;
76100;Laerm;64828;49.956;8.636;2023-04-03T00:27:48;35.22;33.23;38.86;;
76100;Laerm;64828;49.956;8.636;2023-04-03T00:28:04;35.13;33.48;37.51;;
76100;Laerm;64828;49.956;8.636;2023-04-03T00:28:20;35.51;33.09;38.13;;
76100;Laerm;64828;49.956;8.636;2023-04-03T00:28:36;35.15;33.36;37.23;;
76100;Laerm;64828;49.956;8.636;2023-04-03T00:28:52;35.37;33.47;37.73;;
76100;Laerm;64828;49.956;8.636;2023-04-03T00:29:07;35.85;33.54;38.64;;
76100;Laerm;64828;49.956;8.636;2023-04-03T00:29:23;35.30;33.36;36.96;;
76100;Laerm;64828;49.956;8.636;2023-04-03T00:29:38;35.37;33.19;37.73;;
76100;Laerm;64828;49.956;8.636;2023-04-03T00:29:54;35.33;33.51;37.18;;
76100;Laerm;64828;49.956;8.636;2023-04-03T00:30:15;35.19;33.34;37.33;;
76100;Laerm;64828;49.956;8.636;2023-04-03T00:30:31;35.00;33.03;36.75;;
76100;Laerm;64828;49.956;8.636;2023-04-03T00:30:50;35.00;33.18;37.17;;
76100;Laerm;64828;49.956;8.636;2023-04-03T00:31:05;34.97;33.34;36.76;;
76100;Laerm;64828;49.956;8.636;2023-04-03T00:31:21;34.99;32.97;37.06;;
76100;Laerm;64828;49.956;8.636;2023-04-03T00:31:37;34.91;32.97;36.95;;
76100;Laerm;64828;49.956;8.636;2023-04-03T00:31:52;35.08;33.04;37.62;;
76100;Laerm;64828;49.956;8.636;2023-04-03T00:32:08;34.99;33.00;36.91;;
76100;Laerm;64828;49.956;8.636;2023-04-03T00:32:24;35.02;32.84;37.02;;
76100;Laerm;64828;49.956;8.636;2023-04-03T00:32:39;35.05;33.04;42.46;;
76100;Laerm;64828;49.956;8.636;2023-04-03T00:32:55;35.01;33.39;36.90;;
76100;Laerm;64828;49.956;8.636;2023-04-03T00:33:13;35.12;33.16;36.96;;
76100;Laerm;64828;49.956;8.636;2023-04-03T00:33:29;35.03;33.19;37.13;;
76100;Laerm;64828;49.956;8.636;2023-04-03T00:33:44;35.04;33.25;37.08;;
76100;Laerm;64828;49.956;8.636;2023-04-03T00:34:00;35.38;33.34;37.77;;
76100;Laerm;64828;49.956;8.636;2023-04-03T00:34:15;35.24;33.41;37.51;;
76100;Laerm;64828;49.956;8.636;2023-04-03T00:34:31;35.33;33.51;37.51;;
76100;Laerm;64828;49.956;8.636;2023-04-03T00:34:47;35.12;33.21;37.09;;
76100;Laerm;64828;49.956;8.636;2023-04-03T00:35:03;35.06;33.24;37.16;;
76100;Laerm;64828;49.956;8.636;2023-04-03T00:35:21;35.11;33.29;37.67;;
76100;Laerm;64828;49.956;8.636;2023-04-03T00:35:37;35.06;33.17;36.81;;
76100;Laerm;64828;49.956;8.636;2023-04-03T00:35:53;35.02;32.94;36.92;;
76100;Laerm;64828;49.956;8.636;2023-04-03T00:36:10;35.07;33.07;38.47;;
76100;Laerm;64828;49.956;8.636;2023-04-03T00:36:26;35.04;32.92;39.29;;
76100;Laerm;64828;49.956;8.636;2023-04-03T00:36:41;35.18;33.19;37.23;;
76100;Laerm;64828;49.956;8.636;2023-04-03T00:36:57;35.06;32.96;36.93;;
76100;Laerm;64828;49.956;8.636;2023-04-03T00:37:13;35.08;32.96;37.00;;
76100;Laerm;64828;49.956;8.636;2023-04-03T00:37:28;35.21;33.32;37.14;;
76100;Laerm;64828;49.956;8.636;2023-04-03T00:37:45;35.13;33.09;37.13;;
76100;Laerm;64828;49.956;8.636;2023-04-03T00:38:01;35.14;33.24;37.25;;
76100;Laerm;64828;49.956;8.636;2023-04-03T00:38:17;35.27;33.01;38.83;;
76100;Laerm;64828;49.956;8.636;2023-04-03T00:38:33;35.47;33.30;37.66;;
76100;Laerm;64828;49.956;8.636;2023-04-03T00:38:49;35.48;33.35;37.35;;
76100;Laerm;64828;49.956;8.636;2023-04-03T00:39:04;35.49;33.15;37.32;;
76100;Laerm;64828;49.956;8.636;2023-04-03T00:39:21;35.54;33.37;37.34;;
76100;Laerm;64828;49.956;8.636;2023-04-03T00:39:36;35.55;33.48;37.89;;
76100;Laerm;64828;49.956;8.636;2023-04-03T00:39:52;35.63;33.49;37.41;;
76100;Laerm;64828;49.956;8.636;2023-04-03T00:40:09;35.67;33.67;37.34;;
76100;Laerm;64828;49.956;8.636;2023-04-03T00:40:26;36.07;33.85;37.72;;
76100;Laerm;64828;49.956;8.636;2023-04-03T00:40:46;35.41;33.30;37.27;;
76100;Laerm;64828;49.956;8.636;2023-04-03T00:41:02;35.23;33.02;44.97;;
76100;Laerm;64828;49.956;8.636;2023-04-03T00:41:18;35.14;33.27;38.27;;
76100;Laerm;64828;49.956;8.636;2023-04-03T00:41:34;35.05;33.18;36.89;;
76100;Laerm;64828;49.956;8.636;2023-04-03T00:41:50;35.13;33.33;37.43;;
76100;Laerm;64828;49.956;8.636;2023-04-03T00:42:06;35.19;33.45;37.19;;
76100;Laerm;64828;49.956;8.636;2023-04-03T00:42:22;35.22;33.32;37.28;;
76100;Laerm;64828;49.956;8.636;2023-04-03T00:42:44;35.20;33.20;40.16;;
76100;Laerm;64828;49.956;8.636;2023-04-03T00:43:01;35.02;33.36;36.93;;
76100;Laerm;64828;49.956;8.636;2023-04-03T00:43:32;35.20;33.40;37.11;;
76100;Laerm;64828;49.956;8.636;2023-04-03T00:43:48;35.29;33.09;37.41;;
76100;Laerm;64828;49.956;8.636;2023-04-03T00:45:39;35.23;33.27;37.77;;
76100;Laerm;64828;49.956;8.636;2023-04-03T00:45:58;35.09;33.24;37.40;;
76100;Laerm;64828;49.956;8.636;2023-04-03T00:46:14;35.03;33.19;37.26;;
76100;Laerm;64828;49.956;8.636;2023-04-03T00:46:29;35.12;33.33;37.32;;
76100;Laerm;64828;49.956;8.636;2023-04-03T00:46:45;35.09;33.14;37.01;;
76100;Laerm;64828;49.956;8.636;2023-04-03T00:47:03;35.04;33.17;36.87;;
76100;Laerm;64828;49.956;8.636;2023-04-03T00:47:21;34.97;33.03;36.88;;
76100;Laerm;64828;49.956;8.636;2023-04-03T00:47:39;34.97;33.04;36.96;;
76100;Laerm;64828;49.956;8.636;2023-04-03T00:47:57;34.90;33.08;37.48;;
76100;Laerm;64828;49.956;8.636;2023-04-03T00:48:36;35.07;32.73;37.13;;
76100;Laerm;64828;49.956;8.636;2023-04-03T00:48:52;35.02;33.09;37.07;;
76100;Laerm;64828;49.956;8.636;2023-04-03T00:49:08;35.03;33.17;37.16;;
76100;Laerm;64828;49.956;8.636;2023-04-03T00:49:24;35.11;33.23;37.23;;
76100;Laerm;64828;49.956;8.636;2023-04-03T00:49:40;35.16;33.36;37.03;;
76100;Laerm;64828;49.956;8.636;2023-04-03T00:49:58;35.14;33.28;37.13;;
76100;Laerm;64828;49.956;8.636;2023-04-03T00:50:14;35.03;32.88;38.52;;
76100;Laerm;64828;49.956;8.636;2023-04-03T00:50:30;35.01;33.28;36.87;;
76100;Laerm;64828;49.956;8.636;2023-04-03T00:50:47;35.00;33.03;36.95;;
76100;Laerm;64828;49.956;8.636;2023-04-03T00:51:07;35.15;33.07;44.92;;
76100;Laerm;64828;49.956;8.636;2023-04-03T00:51:25;35.08;33.38;37.06;;
76100;Laerm;64828;49.956;8.636;2023-04-03T00:51:42;35.24;33.18;37.49;;
76100;Laerm;64828;49.956;8.636;2023-04-03T00:51:59;35.21;33.18;37.06;;
76100;Laerm;64828;49.956;8.636;2023-04-03T00:52:21;35.27;33.28;37.30;;
76100;Laerm;64828;49.956;8.636;2023-04-03T00:52:38;35.21;33.23;37.29;;
76100;Laerm;64828;49.956;8.636;2023-04-03T00:52:56;35.41;33.13;37.20;;
76100;Laerm;64828;49.956;8.636;2023-04-03T00:53:21;35.46;33.28;37.52;;
76100;Laerm;64828;49.956;8.636;2023-04-03T00:54:08;35.49;33.51;37.37;;
76100;Laerm;64828;49.956;8.636;2023-04-03T00:54:23;35.09;32.92;37.19;;
76100;Laerm;64828;49.956;8.636;2023-04-03T00:54:41;35.33;33.23;37.48;;
76100;Laerm;64828;49.956;8.636;2023-04-03T00:55:02;35.34;32.91;37.44;;
76100;Laerm;64828;49.956;8.636;2023-04-03T00:55:20;35.20;33.13;37.45;;
76100;Laerm;64828;49.956;8.636;2023-04-03T00:55:37;35.41;33.44;37.12;;
76100;Laerm;64828;49.956;8.636;2023-04-03T00:55:55;35.50;33.76;37.55;;
76100;Laerm;64828;49.956;8.636;2023-04-03T00:56:16;35.52;33.31;37.68;;
76100;Laerm;64828;49.956;8.636;2023-04-03T00:56:33;35.26;33.21;37.35;;
76100;Laerm;64828;49.956;8.636;2023-04-03T00:56:53;35.15;33.17;37.15;;
76100;Laerm;64828;49.956;8.636;2023-04-03T00:57:12;35.22;33.02;37.10;;
76100;Laerm;64828;49.956;8.636;2023-04-03T00:57:29;35.24;33.22;37.38;;
76100;Laerm;64828;49.956;8.636;2023-04-03T00:57:47;35.11;33.05;37.33;;
76100;Laerm;64828;49.956;8.636;2023-04-03T00:58:04;35.05;32.88;36.88;;
76100;Laerm;64828;49.956;8.636;2023-04-03T00:58:54;35.05;33.04;37.22;;
76100;Laerm;64828;49.956;8.636;2023-04-03T00:59:15;35.17;33.10;38.20;;
76100;Laerm;64828;49.956;8.636;2023-04-03T00:59:38;35.02;33.17;36.87;;
76100;Laerm;64828;49.956;8.636;2023-04-03T01:00:03;35.25;33.16;40.83;;
76100;Laerm;64828;49.956;8.636;2023-04-03T01:00:21;35.14;33.14;38.23;;
76100;Laerm;64828;49.956;8.636;2023-04-03T01:00:44;35.21;33.03;37.20;;
76100;Laerm;64828;49.956;8.636;2023-04-03T01:01:07;35.32;33.30;37.31;;
76100;Laerm;64828;49.956;8.636;2023-04-03T01:01:27;35.20;33.23;37.50;;
76100;Laerm;64828;49.956;8.636;2023-04-03T01:01:43;35.18;33.26;37.12;;
76100;Laerm;64828;49.956;8.636;2023-04-03T01:02:00;35.50;33.27;40.18;;
76100;Laerm;64828;49.956;8.636;2023-04-03T01:02:17;35.27;33.26;37.42;;
76100;Laerm;64828;49.956;8.636;2023-04-03T01:02:33;35.71;33.59;37.46;;
76100;Laerm;64828;49.956;8.636;2023-04-03T01:02:51;36.81;33.88;39.32;;
76100;Laerm;64828;49.956;8.636;2023-04-03T01:03:07;37.69;35.25;41.42;;
76100;Laerm;64828;49.956;8.636;2023-04-03T01:03:23;37.31;35.08;41.16;;
76100;Laerm;64828;49.956;8.636;2023-04-03T01:03:39;37.06;34.13;40.72;;
76100;Laerm;64828;49.956;8.636;2023-04-03T01:03:55;35.54;33.50;37.16;;
76100;Laerm;64828;49.956;8.636;2023-04-03T01:04:36;35.35;33.33;37.46;;
76100;Laerm;64828;49.956;8.636;2023-04-03T01:04:52;35.31;33.61;37.89;;
76100;Laerm;64828;49.956;8.636;2023-04-03T01:05:08;35.45;33.18;37.59;;
76100;Laerm;64828;49.956;8.636;2023-04-03T01:05:25;35.44;33.34;37.76;;
76100;Laerm;64828;49.956;8.636;2023-04-03T01:05:40;35.30;33.28;37.23;;
76100;Laerm;64828;49.956;8.636;2023-04-03T01:05:56;35.07;33.01;37.09;;
76100;Laerm;64828;49.956;8.636;2023-04-03T01:06:16;35.12;33.39;37.13;;
76100;Laerm;64828;49.956;8.636;2023-04-03T01:06:36;35.30;33.31;37.42;;
76100;Laerm;64828;49.956;8.636;2023-04-03T01:06:52;35.59;33.63;37.30;;
76100;Laerm;64828;49.956;8.636;2023-04-03T01:07:21;35.39;33.42;37.28;;
76100;Laerm;64828;49.956;8.636;2023-04-03T01:07:38;35.39;33.39;38.46;;
76100;Laerm;64828;49.956;8.636;2023-04-03T01:07:56;35.44;33.63;37.85;;
76100;Laerm;64828;49.956;8.636;2023-04-03T01:08:12;35.65;33.84;37.23;;
76100;Laerm;64828;49.956;8.636;2023-04-03T01:08:27;35.29;33.22;37.17;;
76100;Laerm;64828;49.956;8.636;2023-04-03T01:08:44;35.26;33.18;37.26;;
76100;Laerm;64828;49.956;8.636;2023-04-03T01:09:04;35.20;32.87;37.50;;
76100;Laerm;64828;49.956;8.636;2023-04-03T01:09:20;35.03;33.10;36.99;;
76100;Laerm;64828;49.956;8.636;2023-04-03T01:09:36;34.99;33.22;37.21;;
76100;Laerm;64828;49.956;8.636;2023-04-03T01:09:58;35.08;33.02;36.78;;
76100;Laerm;64828;49.956;8.636;2023-04-03T01:10:16;35.18;33.07;37.37;;
76100;Laerm;64828;49.956;8.636;2023-04-03T01:10:34;35.14;33.25;37.01;;
76100;Laerm;64828;49.956;8.636;2023-04-03T01:10:50;35.19;33.36;37.29;;
76100;Laerm;64828;49.956;8.636;2023-04-03T01:11:06;35.11;32.91;37.14;;
76100;Laerm;64828;49.956;8.636;2023-04-03T01:11:21;35.07;33.23;37.32;;
76100;Laerm;64828;49.956;8.636;2023-04-03T01:11:37;35.13;33.02;39.84;;
76100;Laerm;64828;49.956;8.636;2023-04-03T01:11:52;35.16;33.10;37.02;;
76100;Laerm;64828;49.956;8.636;2023-04-03T01:12:16;35.21;33.24;37.28;;
76100;Laerm;64828;49.956;8.636;2023-04-03T01:12:37;35.26;33.28;37.47;;
76100;Laerm;64828;49.956;8.636;2023-04-03T01:12:53;35.29;33.42;37.22;;
76100;Laerm;64828;49.956;8.636;2023-04-03T01:13:29;35.34;33.32;37.36;;
76100;Laerm;64828;49.956;8.636;2023-04-03T01:13:45;35.55;33.14;37.66;;
76100;Laerm;64828;49.956;8.636;2023-04-03T01:14:00;35.59;33.58;37.73;;
76100;Laerm;64828;49.956;8.636;2023-04-03T01:14:17;36.12;33.57;39.32;;
76100;Laerm;64828;49.956;8.636;2023-04-03T01:14:32;35.91;33.76;39.81;;
76100;Laerm;64828;49.956;8.636;2023-04-03T01:14:53;35.38;33.08;37.68;;
76100;Laerm;64828;49.956;8.636;2023-04-03T01:15:21;35.33;33.21;37.21;;
76100;Laerm;64828;49.956;8.636;2023-04-03T01:15:38;35.54;33.50;37.41;;
76100;Laerm;64828;49.956;8.636;2023-04-03T01:15:54;35.82;33.61;38.80;;
76100;Laerm;64828;49.956;8.636;2023-04-03T01:16:10;36.13;33.91;39.74;;
76100;Laerm;64828;49.956;8.636;2023-04-03T01:16:26;35.85;33.30;37.58;;
76100;Laerm;64828;49.956;8.636;2023-04-03T01:16:50;36.27;33.72;38.61;;
76100;Laerm;64828;49.956;8.636;2023-04-03T01:17:43;35.37;33.21;37.40;;
76100;Laerm;64828;49.956;8.636;2023-04-03T01:17:59;35.40;33.21;37.02;;
76100;Laerm;64828;49.956;8.636;2023-04-03T01:18:16;35.38;33.59;39.01;;
76100;Laerm;64828;49.956;8.636;2023-04-03T01:18:34;35.40;33.19;37.43;;
76100;Laerm;64828;49.956;8.636;2023-04-03T01:18:51;35.50;33.31;37.80;;
76100;Laerm;64828;49.956;8.636;2023-04-03T01:19:15;35.61;33.23;37.32;;
76100;Laerm;64828;49.956;8.636;2023-04-03T01:19:36;35.32;33.42;37.37;;
76100;Laerm;64828;49.956;8.636;2023-04-03T01:22:19;35.38;33.12;37.74;;
76100;Laerm;64828;49.956;8.636;2023-04-03T01:23:05;35.32;33.32;37.66;;
76100;Laerm;64828;49.956;8.636;2023-04-03T01:23:32;35.71;33.42;39.46;;
76100;Laerm;64828;49.956;8.636;2023-04-03T01:24:36;35.40;33.42;37.34;;
76100;Laerm;64828;49.956;8.636;2023-04-03T01:24:54;35.44;33.66;37.25;;
76100;Laerm;64828;49.956;8.636;2023-04-03T01:25:09;35.49;33.36;37.32;;
76100;Laerm;64828;49.956;8.636;2023-04-03T01:25:25;35.53;33.38;37.33;;
76100;Laerm;64828;49.956;8.636;2023-04-03T01:25:52;35.32;33.42;36.99;;
76100;Laerm;64828;49.956;8.636;2023-04-03T01:26:08;35.38;33.49;37.04;;
76100;Laerm;64828;49.956;8.636;2023-04-03T01:26:25;35.45;33.68;37.19;;
76100;Laerm;64828;49.956;8.636;2023-04-03T01:26:41;35.40;33.51;36.81;;
76100;Laerm;64828;49.956;8.636;2023-04-03T01:26:57;35.40;33.48;37.30;;
76100;Laerm;64828;49.956;8.636;2023-04-03T01:27:13;35.46;33.61;37.58;;
76100;Laerm;64828;49.956;8.636;2023-04-03T01:27:28;35.31;33.38;37.30;;
76100;Laerm;64828;49.956;8.636;2023-04-03T01:27:44;35.47;33.62;37.49;;
76100;Laerm;64828;49.956;8.636;2023-04-03T01:28:00;35.32;33.62;37.36;;
76100;Laerm;64828;49.956;8.636;2023-04-03T01:28:30;35.33;33.11;37.13;;
76100;Laerm;64828;49.956;8.636;2023-04-03T01:28:46;35.24;33.36;37.30;;
76100;Laerm;64828;49.956;8.636;2023-04-03T01:29:03;35.26;33.54;36.92;;
76100;Laerm;64828;49.956;8.636;2023-04-03T01:29:18;35.56;33.70;37.38;;
76100;Laerm;64828;49.956;8.636;2023-04-03T01:29:35;35.24;33.34;37.28;;
76100;Laerm;64828;49.956;8.636;2023-04-03T01:29:51;35.37;33.40;37.01;;
76100;Laerm;64828;49.956;8.636;2023-04-03T01:30:07;35.35;33.50;37.21;;
76100;Laerm;64828;49.956;8.636;2023-04-03T01:30:30;35.26;33.32;37.18;;
76100;Laerm;64828;49.956;8.636;2023-04-03T01:31:08;35.38;33.21;37.66;;
76100;Laerm;64828;49.956;8.636;2023-04-03T01:32:12;35.67;33.48;37.94;;
76100;Laerm;64828;49.956;8.636;2023-04-03T01:32:28;35.53;33.56;37.15;;
76100;Laerm;64828;49.956;8.636;2023-04-03T01:32:43;35.44;33.39;37.26;;
76100;Laerm;64828;49.956;8.636;2023-04-03T01:32:59;35.60;33.57;37.95;;
76100;Laerm;64828;49.956;8.636;2023-04-03T01:33:15;35.64;33.68;37.27;;
76100;Laerm;64828;49.956;8.636;2023-04-03T01:33:31;35.68;33.92;37.49;;
76100;Laerm;64828;49.956;8.636;2023-04-03T01:33:47;35.61;33.90;37.20;;
76100;Laerm;64828;49.956;8.636;2023-04-03T01:34:03;35.90;33.68;37.59;;
76100;Laerm;64828;49.956;8.636;2023-04-03T01:34:19;36.27;33.78;39.19;;
76100;Laerm;64828;49.956;8.636;2023-04-03T01:34:35;37.39;34.29;42.31;;
76100;Laerm;64828;49.956;8.636;2023-04-03T01:34:51;37.18;35.20;39.37;;
76100;Laerm;64828;49.956;8.636;2023-04-03T01:35:09;36.84;34.38;39.63;;
76100;Laerm;64828;49.956;8.636;2023-04-03T01:35:25;36.30;33.82;38.72;;
76100;Laerm;64828;49.956;8.636;2023-04-03T01:35:40;35.45;33.42;37.14;;
76100;Laerm;64828;49.956;8.636;2023-04-03T01:35:56;35.77;33.62;38.19;;
76100;Laerm;64828;49.956;8.636;2023-04-03T01:36:24;35.74;34.01;37.76;;
76100;Laerm;64828;49.956;8.636;2023-04-03T01:36:40;35.92;33.96;44.64;;
76100;Laerm;64828;49.956;8.636;2023-04-03T01:36:56;35.66;33.79;37.53;;
76100;Laerm;64828;49.956;8.636;2023-04-03T01:37:12;35.56;33.63;37.52;;
76100;Laerm;64828;49.956;8.636;2023-04-03T01:37:28;35.58;33.77;37.55;;
76100;Laerm;64828;49.956;8.636;2023-04-03T01:37:43;35.64;33.60;37.68;;
76100;Laerm;64828;49.956;8.636;2023-04-03T01:37:59;35.92;34.08;37.78;;
76100;Laerm;64828;49.956;8.636;2023-04-03T01:38:15;36.20;33.73;38.09;;
76100;Laerm;64828;49.956;8.636;2023-04-03T01:38:31;35.97;33.71;37.61;;
76100;Laerm;64828;49.956;8.636;2023-04-03T01:38:48;35.75;33.80;37.51;;
76100;Laerm;64828;49.956;8.636;2023-04-03T01:39:03;35.77;33.78;37.43;;
76100;Laerm;64828;49.956;8.636;2023-04-03T01:39:20;35.96;34.30;37.68;;
76100;Laerm;64828;49.956;8.636;2023-04-03T01:39:36;35.71;34.01;37.22;;
76100;Laerm;64828;49.956;8.636;2023-04-03T01:39:51;35.72;33.95;37.40;;
76100;Laerm;64828;49.956;8.636;2023-04-03T01:40:08;35.74;33.81;37.57;;
76100;Laerm;64828;49.956;8.636;2023-04-03T01:40:24;35.79;33.52;37.68;;
76100;Laerm;64828;49.956;8.636;2023-04-03T01:40:40;35.78;34.08;37.86;;
76100;Laerm;64828;49.956;8.636;2023-04-03T01:40:56;35.62;33.81;37.98;;
76100;Laerm;64828;49.956;8.636;2023-04-03T01:41:12;35.67;33.89;37.65;;
76100;Laerm;64828;49.956;8.636;2023-04-03T01:41:28;35.71;33.55;37.86;;
76100;Laerm;64828;49.956;8.636;2023-04-03T01:41:44;36.11;33.57;39.17;;
76100;Laerm;64828;49.956;8.636;2023-04-03T01:42:00;35.91;33.66;37.48;;
76100;Laerm;64828;49.956;8.636;2023-04-03T01:42:16;35.59;33.79;37.45;;
76100;Laerm;64828;49.956;8.636;2023-04-03T01:42:31;35.75;33.87;37.89;;
76100;Laerm;64828;49.956;8.636;2023-04-03T01:42:47;35.49;33.56;37.88;;
76100;Laerm;64828;49.956;8.636;2023-04-03T01:43:02;36.01;34.25;37.87;;
76100;Laerm;64828;49.956;8.636;2023-04-03T01:43:18;36.19;34.28;38.18;;
76100;Laerm;64828;49.956;8.636;2023-04-03T01:43:34;36.28;33.89;37.84;;